sensor_id;sensor_type;location;lat;lon;timestamp;P1;durP1;ratioP1;P2;durP2;ratioP2
27977;SDS011;15314;49.248;6.968;2022-08-19T00:00:44;27.38;;;25.08;;
27977;SDS011;15314;49.248;6.968;2022-08-19T00:01:46;29.40;;;26.77;;
27977;SDS011;15314;49.248;6.968;2022-08-19T00:02:48;29.45;;;26.67;;
27977;SDS011;15314;49.248;6.968;2022-08-19T00:03:48;29.40;;;26.73;;
27977;SDS011;15314;49.248;6.968;2022-08-19T00:04:49;30.13;;;27.50;;
27977;SDS011;15314;49.248;6.968;2022-08-19T00:05:52;28.23;;;25.42;;
27977;SDS011;15314;49.248;6.968;2022-08-19T00:06:53;29.52;;;26.90;;
27977;SDS011;15314;49.248;6.968;2022-08-19T00:07:54;28.73;;;26.05;;
27977;SDS011;15314;49.248;6.968;2022-08-19T00:08:55;29.00;;;26.05;;
27977;SDS011;15314;49.248;6.968;2022-08-19T00:09:57;27.45;;;24.95;;
27977;SDS011;15314;49.248;6.968;2022-08-19T00:10:58;26.80;;;24.35;;
27977;SDS011;15314;49.248;6.968;2022-08-19T00:11:59;28.95;;;26.20;;
27977;SDS011;15314;49.248;6.968;2022-08-19T00:13:00;30.30;;;27.50;;
27977;SDS011;15314;49.248;6.968;2022-08-19T00:14:00;30.50;;;27.73;;
27977;SDS011;15314;49.248;6.968;2022-08-19T00:15:02;26.95;;;24.50;;
27977;SDS011;15314;49.248;6.968;2022-08-19T00:16:05;27.90;;;25.17;;
27977;SDS011;15314;49.248;6.968;2022-08-19T00:17:07;27.95;;;25.27;;
27977;SDS011;15314;49.248;6.968;2022-08-19T00:18:09;26.88;;;24.52;;
27977;SDS011;15314;49.248;6.968;2022-08-19T00:19:10;30.23;;;27.42;;
27977;SDS011;15314;49.248;6.968;2022-08-19T00:20:12;28.98;;;26.58;;
27977;SDS011;15314;49.248;6.968;2022-08-19T00:21:16;28.58;;;26.10;;
27977;SDS011;15314;49.248;6.968;2022-08-19T00:22:17;29.30;;;26.80;;
27977;SDS011;15314;49.248;6.968;2022-08-19T00:23:18;31.27;;;28.42;;
27977;SDS011;15314;49.248;6.968;2022-08-19T00:24:19;28.92;;;26.13;;
27977;SDS011;15314;49.248;6.968;2022-08-19T00:25:20;29.65;;;27.10;;
27977;SDS011;15314;49.248;6.968;2022-08-19T00:26:21;29.92;;;27.33;;
27977;SDS011;15314;49.248;6.968;2022-08-19T00:27:21;29.00;;;26.50;;
27977;SDS011;15314;49.248;6.968;2022-08-19T00:28:22;29.02;;;26.02;;
27977;SDS011;15314;49.248;6.968;2022-08-19T00:29:23;29.25;;;26.75;;
27977;SDS011;15314;49.248;6.968;2022-08-19T00:30:25;28.05;;;25.52;;
27977;SDS011;15314;49.248;6.968;2022-08-19T00:31:27;27.42;;;24.58;;
27977;SDS011;15314;49.248;6.968;2022-08-19T00:32:28;30.90;;;28.10;;
27977;SDS011;15314;49.248;6.968;2022-08-19T00:33:29;31.27;;;28.42;;
27977;SDS011;15314;49.248;6.968;2022-08-19T00:34:33;32.28;;;29.08;;
27977;SDS011;15314;49.248;6.968;2022-08-19T00:35:34;30.85;;;27.90;;
27977;SDS011;15314;49.248;6.968;2022-08-19T00:36:35;29.65;;;26.85;;
27977;SDS011;15314;49.248;6.968;2022-08-19T00:37:37;29.70;;;27.15;;
27977;SDS011;15314;49.248;6.968;2022-08-19T00:38:38;29.15;;;26.50;;
27977;SDS011;15314;49.248;6.968;2022-08-19T00:39:43;29.08;;;26.42;;
27977;SDS011;15314;49.248;6.968;2022-08-19T00:40:43;31.80;;;28.70;;
27977;SDS011;15314;49.248;6.968;2022-08-19T00:41:49;31.42;;;28.58;;
27977;SDS011;15314;49.248;6.968;2022-08-19T00:42:50;29.80;;;26.92;;
27977;SDS011;15314;49.248;6.968;2022-08-19T00:44:07;30.00;;;27.15;;
27977;SDS011;15314;49.248;6.968;2022-08-19T00:45:16;31.23;;;28.38;;
27977;SDS011;15314;49.248;6.968;2022-08-19T00:46:20;28.58;;;25.77;;
27977;SDS011;15314;49.248;6.968;2022-08-19T00:47:20;29.65;;;26.88;;
27977;SDS011;15314;49.248;6.968;2022-08-19T00:48:21;30.73;;;27.63;;
27977;SDS011;15314;49.248;6.968;2022-08-19T00:50:34;30.20;;;27.23;;
27977;SDS011;15314;49.248;6.968;2022-08-19T00:51:35;28.50;;;25.80;;
27977;SDS011;15314;49.248;6.968;2022-08-19T00:52:38;30.88;;;27.98;;
27977;SDS011;15314;49.248;6.968;2022-08-19T00:53:45;31.13;;;28.23;;
27977;SDS011;15314;49.248;6.968;2022-08-19T00:54:46;30.05;;;27.25;;
27977;SDS011;15314;49.248;6.968;2022-08-19T00:55:48;30.73;;;28.02;;
27977;SDS011;15314;49.248;6.968;2022-08-19T00:56:52;32.35;;;29.42;;
27977;SDS011;15314;49.248;6.968;2022-08-19T00:57:58;32.65;;;29.75;;
27977;SDS011;15314;49.248;6.968;2022-08-19T00:59:03;30.02;;;27.13;;
27977;SDS011;15314;49.248;6.968;2022-08-19T01:00:10;31.48;;;28.63;;
27977;SDS011;15314;49.248;6.968;2022-08-19T01:01:13;31.05;;;28.35;;
27977;SDS011;15314;49.248;6.968;2022-08-19T01:02:14;30.40;;;27.73;;
27977;SDS011;15314;49.248;6.968;2022-08-19T01:03:17;30.83;;;27.83;;
27977;SDS011;15314;49.248;6.968;2022-08-19T01:04:19;32.70;;;29.83;;
27977;SDS011;15314;49.248;6.968;2022-08-19T01:05:23;31.52;;;28.73;;
27977;SDS011;15314;49.248;6.968;2022-08-19T01:06:27;31.70;;;28.67;;
27977;SDS011;15314;49.248;6.968;2022-08-19T01:07:28;32.83;;;29.90;;
27977;SDS011;15314;49.248;6.968;2022-08-19T01:08:28;31.15;;;28.10;;
27977;SDS011;15314;49.248;6.968;2022-08-19T01:09:29;30.90;;;28.20;;
27977;SDS011;15314;49.248;6.968;2022-08-19T01:10:32;32.80;;;29.70;;
27977;SDS011;15314;49.248;6.968;2022-08-19T01:11:39;33.17;;;30.20;;
27977;SDS011;15314;49.248;6.968;2022-08-19T01:12:44;31.20;;;28.20;;
27977;SDS011;15314;49.248;6.968;2022-08-19T01:13:46;30.27;;;27.30;;
27977;SDS011;15314;49.248;6.968;2022-08-19T01:14:47;31.92;;;29.02;;
27977;SDS011;15314;49.248;6.968;2022-08-19T01:15:50;33.10;;;30.05;;
27977;SDS011;15314;49.248;6.968;2022-08-19T01:16:54;31.25;;;28.45;;
27977;SDS011;15314;49.248;6.968;2022-08-19T01:17:57;31.20;;;28.25;;
27977;SDS011;15314;49.248;6.968;2022-08-19T01:19:01;32.20;;;29.25;;
27977;SDS011;15314;49.248;6.968;2022-08-19T01:20:04;31.73;;;28.65;;
27977;SDS011;15314;49.248;6.968;2022-08-19T01:21:09;31.00;;;28.10;;
27977;SDS011;15314;49.248;6.968;2022-08-19T01:23:23;30.45;;;27.75;;
27977;SDS011;15314;49.248;6.968;2022-08-19T01:24:42;30.13;;;27.20;;
27977;SDS011;15314;49.248;6.968;2022-08-19T01:25:47;31.30;;;28.35;;
27977;SDS011;15314;49.248;6.968;2022-08-19T01:26:51;32.92;;;29.73;;
27977;SDS011;15314;49.248;6.968;2022-08-19T01:27:52;32.25;;;29.15;;
27977;SDS011;15314;49.248;6.968;2022-08-19T01:28:55;32.55;;;29.33;;
27977;SDS011;15314;49.248;6.968;2022-08-19T01:29:56;32.08;;;28.92;;
27977;SDS011;15314;49.248;6.968;2022-08-19T01:30:57;30.90;;;28.08;;
27977;SDS011;15314;49.248;6.968;2022-08-19T01:31:58;32.55;;;29.55;;
27977;SDS011;15314;49.248;6.968;2022-08-19T01:33:01;30.42;;;27.65;;
27977;SDS011;15314;49.248;6.968;2022-08-19T01:34:05;32.00;;;29.17;;
27977;SDS011;15314;49.248;6.968;2022-08-19T01:35:07;30.55;;;27.65;;
27977;SDS011;15314;49.248;6.968;2022-08-19T01:36:10;30.20;;;27.60;;
27977;SDS011;15314;49.248;6.968;2022-08-19T01:37:12;26.80;;;24.35;;
27977;SDS011;15314;49.248;6.968;2022-08-19T01:38:26;29.55;;;26.75;;
27977;SDS011;15314;49.248;6.968;2022-08-19T01:39:28;32.65;;;29.58;;
27977;SDS011;15314;49.248;6.968;2022-08-19T01:40:30;29.25;;;26.45;;
27977;SDS011;15314;49.248;6.968;2022-08-19T01:41:33;29.52;;;26.77;;
27977;SDS011;15314;49.248;6.968;2022-08-19T01:42:33;30.25;;;27.65;;
27977;SDS011;15314;49.248;6.968;2022-08-19T01:43:35;29.50;;;26.88;;
27977;SDS011;15314;49.248;6.968;2022-08-19T01:44:38;28.08;;;25.63;;
27977;SDS011;15314;49.248;6.968;2022-08-19T01:45:40;27.58;;;25.27;;
27977;SDS011;15314;49.248;6.968;2022-08-19T01:46:42;29.05;;;26.33;;
27977;SDS011;15314;49.248;6.968;2022-08-19T01:47:43;29.00;;;26.38;;
27977;SDS011;15314;49.248;6.968;2022-08-19T01:48:44;27.30;;;25.02;;
27977;SDS011;15314;49.248;6.968;2022-08-19T01:49:45;27.73;;;25.13;;
27977;SDS011;15314;49.248;6.968;2022-08-19T01:50:46;27.25;;;24.85;;
27977;SDS011;15314;49.248;6.968;2022-08-19T01:51:48;28.73;;;26.20;;
27977;SDS011;15314;49.248;6.968;2022-08-19T01:52:49;28.33;;;25.65;;
27977;SDS011;15314;49.248;6.968;2022-08-19T01:53:50;28.52;;;26.13;;
27977;SDS011;15314;49.248;6.968;2022-08-19T01:54:51;28.08;;;25.55;;
27977;SDS011;15314;49.248;6.968;2022-08-19T01:55:52;28.05;;;25.45;;
27977;SDS011;15314;49.248;6.968;2022-08-19T01:56:54;27.90;;;25.45;;
27977;SDS011;15314;49.248;6.968;2022-08-19T01:58:00;28.00;;;25.40;;
27977;SDS011;15314;49.248;6.968;2022-08-19T01:59:03;28.55;;;25.98;;
27977;SDS011;15314;49.248;6.968;2022-08-19T02:00:09;27.05;;;24.58;;
27977;SDS011;15314;49.248;6.968;2022-08-19T02:01:12;27.42;;;24.77;;
27977;SDS011;15314;49.248;6.968;2022-08-19T02:02:13;28.70;;;26.15;;
27977;SDS011;15314;49.248;6.968;2022-08-19T02:03:14;28.60;;;26.10;;
27977;SDS011;15314;49.248;6.968;2022-08-19T02:04:15;28.98;;;26.52;;
27977;SDS011;15314;49.248;6.968;2022-08-19T02:05:16;28.50;;;25.90;;
27977;SDS011;15314;49.248;6.968;2022-08-19T02:06:18;28.15;;;25.63;;
27977;SDS011;15314;49.248;6.968;2022-08-19T02:07:20;28.48;;;25.98;;
27977;SDS011;15314;49.248;6.968;2022-08-19T02:08:23;29.50;;;26.77;;
27977;SDS011;15314;49.248;6.968;2022-08-19T02:09:24;30.00;;;27.40;;
27977;SDS011;15314;49.248;6.968;2022-08-19T02:10:25;28.08;;;25.48;;
27977;SDS011;15314;49.248;6.968;2022-08-19T02:11:27;28.38;;;25.75;;
27977;SDS011;15314;49.248;6.968;2022-08-19T02:12:31;28.25;;;25.67;;
27977;SDS011;15314;49.248;6.968;2022-08-19T02:13:32;28.15;;;25.45;;
27977;SDS011;15314;49.248;6.968;2022-08-19T02:14:34;27.45;;;24.85;;
27977;SDS011;15314;49.248;6.968;2022-08-19T02:15:36;28.77;;;26.20;;
27977;SDS011;15314;49.248;6.968;2022-08-19T02:16:37;27.98;;;25.42;;
27977;SDS011;15314;49.248;6.968;2022-08-19T02:17:40;29.75;;;26.75;;
27977;SDS011;15314;49.248;6.968;2022-08-19T02:18:41;26.98;;;24.45;;
27977;SDS011;15314;49.248;6.968;2022-08-19T02:19:41;29.63;;;26.92;;
27977;SDS011;15314;49.248;6.968;2022-08-19T02:20:42;28.42;;;26.02;;
27977;SDS011;15314;49.248;6.968;2022-08-19T02:21:43;28.42;;;25.92;;
27977;SDS011;15314;49.248;6.968;2022-08-19T02:22:44;28.45;;;25.92;;
27977;SDS011;15314;49.248;6.968;2022-08-19T02:23:45;28.80;;;26.20;;
27977;SDS011;15314;49.248;6.968;2022-08-19T02:24:46;28.98;;;26.42;;
27977;SDS011;15314;49.248;6.968;2022-08-19T02:25:48;28.63;;;26.13;;
27977;SDS011;15314;49.248;6.968;2022-08-19T02:26:48;26.95;;;24.63;;
27977;SDS011;15314;49.248;6.968;2022-08-19T02:27:49;28.60;;;26.13;;
27977;SDS011;15314;49.248;6.968;2022-08-19T02:28:50;28.08;;;25.63;;
27977;SDS011;15314;49.248;6.968;2022-08-19T02:29:50;29.73;;;26.63;;
27977;SDS011;15314;49.248;6.968;2022-08-19T02:30:52;30.48;;;27.67;;
27977;SDS011;15314;49.248;6.968;2022-08-19T02:31:52;28.73;;;26.38;;
27977;SDS011;15314;49.248;6.968;2022-08-19T02:32:53;28.17;;;25.77;;
27977;SDS011;15314;49.248;6.968;2022-08-19T02:33:55;28.40;;;25.83;;
27977;SDS011;15314;49.248;6.968;2022-08-19T02:34:56;28.80;;;25.92;;
27977;SDS011;15314;49.248;6.968;2022-08-19T02:35:57;26.75;;;24.35;;
27977;SDS011;15314;49.248;6.968;2022-08-19T02:36:57;26.45;;;24.02;;
27977;SDS011;15314;49.248;6.968;2022-08-19T02:37:58;25.60;;;23.40;;
27977;SDS011;15314;49.248;6.968;2022-08-19T02:39:18;25.77;;;23.48;;
27977;SDS011;15314;49.248;6.968;2022-08-19T02:40:19;25.35;;;23.02;;
27977;SDS011;15314;49.248;6.968;2022-08-19T02:41:21;26.13;;;23.80;;
27977;SDS011;15314;49.248;6.968;2022-08-19T02:42:23;24.75;;;22.65;;
27977;SDS011;15314;49.248;6.968;2022-08-19T02:43:24;24.60;;;22.70;;
27977;SDS011;15314;49.248;6.968;2022-08-19T02:44:27;24.88;;;22.73;;
27977;SDS011;15314;49.248;6.968;2022-08-19T02:45:32;24.67;;;22.50;;
27977;SDS011;15314;49.248;6.968;2022-08-19T02:46:37;24.92;;;22.65;;
27977;SDS011;15314;49.248;6.968;2022-08-19T02:47:37;24.77;;;22.67;;
27977;SDS011;15314;49.248;6.968;2022-08-19T02:48:38;24.85;;;22.83;;
27977;SDS011;15314;49.248;6.968;2022-08-19T02:49:39;23.98;;;21.67;;
27977;SDS011;15314;49.248;6.968;2022-08-19T02:50:40;24.58;;;22.30;;
27977;SDS011;15314;49.248;6.968;2022-08-19T02:51:42;22.85;;;20.65;;
27977;SDS011;15314;49.248;6.968;2022-08-19T02:52:45;25.13;;;23.10;;
27977;SDS011;15314;49.248;6.968;2022-08-19T02:53:45;22.50;;;20.60;;
27977;SDS011;15314;49.248;6.968;2022-08-19T02:54:46;24.25;;;22.15;;
27977;SDS011;15314;49.248;6.968;2022-08-19T02:55:47;24.80;;;22.45;;
27977;SDS011;15314;49.248;6.968;2022-08-19T02:56:48;25.00;;;22.60;;
27977;SDS011;15314;49.248;6.968;2022-08-19T02:57:49;22.65;;;20.75;;
27977;SDS011;15314;49.248;6.968;2022-08-19T02:58:49;24.10;;;21.92;;
27977;SDS011;15314;49.248;6.968;2022-08-19T02:59:50;22.17;;;20.35;;
27977;SDS011;15314;49.248;6.968;2022-08-19T03:00:52;22.40;;;20.40;;
27977;SDS011;15314;49.248;6.968;2022-08-19T03:01:55;23.63;;;21.52;;
27977;SDS011;15314;49.248;6.968;2022-08-19T03:02:56;23.40;;;21.30;;
27977;SDS011;15314;49.248;6.968;2022-08-19T03:03:58;23.48;;;21.58;;
27977;SDS011;15314;49.248;6.968;2022-08-19T03:05:00;23.77;;;21.77;;
27977;SDS011;15314;49.248;6.968;2022-08-19T03:06:03;22.50;;;20.50;;
27977;SDS011;15314;49.248;6.968;2022-08-19T03:07:15;25.00;;;22.92;;
27977;SDS011;15314;49.248;6.968;2022-08-19T03:08:16;22.38;;;20.48;;
27977;SDS011;15314;49.248;6.968;2022-08-19T03:09:17;21.38;;;19.67;;
27977;SDS011;15314;49.248;6.968;2022-08-19T03:10:19;24.15;;;22.00;;
27977;SDS011;15314;49.248;6.968;2022-08-19T03:11:23;24.00;;;21.83;;
27977;SDS011;15314;49.248;6.968;2022-08-19T03:12:26;23.42;;;21.52;;
27977;SDS011;15314;49.248;6.968;2022-08-19T03:13:27;23.13;;;21.10;;
27977;SDS011;15314;49.248;6.968;2022-08-19T03:14:29;24.10;;;22.00;;
27977;SDS011;15314;49.248;6.968;2022-08-19T03:15:31;23.10;;;21.05;;
27977;SDS011;15314;49.248;6.968;2022-08-19T03:16:33;24.33;;;22.13;;
27977;SDS011;15314;49.248;6.968;2022-08-19T03:17:39;22.98;;;21.02;;
27977;SDS011;15314;49.248;6.968;2022-08-19T03:18:40;23.77;;;21.58;;
27977;SDS011;15314;49.248;6.968;2022-08-19T03:19:41;23.13;;;21.00;;
27977;SDS011;15314;49.248;6.968;2022-08-19T03:20:47;23.20;;;20.77;;
27977;SDS011;15314;49.248;6.968;2022-08-19T03:21:50;23.55;;;21.55;;
27977;SDS011;15314;49.248;6.968;2022-08-19T03:22:51;24.73;;;22.42;;
27977;SDS011;15314;49.248;6.968;2022-08-19T03:23:56;24.58;;;22.50;;
27977;SDS011;15314;49.248;6.968;2022-08-19T03:24:58;25.15;;;22.92;;
27977;SDS011;15314;49.248;6.968;2022-08-19T03:26:02;24.48;;;22.40;;
27977;SDS011;15314;49.248;6.968;2022-08-19T03:27:04;24.88;;;22.52;;
27977;SDS011;15314;49.248;6.968;2022-08-19T03:28:05;24.50;;;22.20;;
27977;SDS011;15314;49.248;6.968;2022-08-19T03:29:07;23.83;;;21.70;;
27977;SDS011;15314;49.248;6.968;2022-08-19T03:30:10;24.15;;;21.88;;
27977;SDS011;15314;49.248;6.968;2022-08-19T03:31:12;25.73;;;23.52;;
27977;SDS011;15314;49.248;6.968;2022-08-19T03:32:13;25.33;;;23.23;;
27977;SDS011;15314;49.248;6.968;2022-08-19T03:33:14;24.80;;;22.45;;
27977;SDS011;15314;49.248;6.968;2022-08-19T03:34:17;25.10;;;22.95;;
27977;SDS011;15314;49.248;6.968;2022-08-19T03:35:20;23.85;;;21.77;;
27977;SDS011;15314;49.248;6.968;2022-08-19T03:36:22;25.38;;;23.17;;
27977;SDS011;15314;49.248;6.968;2022-08-19T03:37:24;24.73;;;22.55;;
27977;SDS011;15314;49.248;6.968;2022-08-19T03:38:25;24.77;;;22.77;;
27977;SDS011;15314;49.248;6.968;2022-08-19T03:39:26;24.45;;;22.27;;
27977;SDS011;15314;49.248;6.968;2022-08-19T03:40:27;23.77;;;21.52;;
27977;SDS011;15314;49.248;6.968;2022-08-19T03:41:32;24.52;;;22.42;;
27977;SDS011;15314;49.248;6.968;2022-08-19T03:42:36;24.15;;;22.05;;
27977;SDS011;15314;49.248;6.968;2022-08-19T03:43:37;25.30;;;23.08;;
27977;SDS011;15314;49.248;6.968;2022-08-19T03:44:39;24.45;;;22.15;;
27977;SDS011;15314;49.248;6.968;2022-08-19T03:45:42;24.25;;;22.15;;
27977;SDS011;15314;49.248;6.968;2022-08-19T03:46:44;23.95;;;21.88;;
27977;SDS011;15314;49.248;6.968;2022-08-19T03:47:46;24.13;;;21.90;;
27977;SDS011;15314;49.248;6.968;2022-08-19T03:48:47;23.38;;;21.40;;
27977;SDS011;15314;49.248;6.968;2022-08-19T03:49:53;23.63;;;21.50;;
27977;SDS011;15314;49.248;6.968;2022-08-19T03:50:54;24.02;;;21.98;;
27977;SDS011;15314;49.248;6.968;2022-08-19T03:51:55;24.25;;;22.20;;
27977;SDS011;15314;49.248;6.968;2022-08-19T03:52:57;24.20;;;22.20;;
27977;SDS011;15314;49.248;6.968;2022-08-19T03:53:59;23.63;;;21.58;;
27977;SDS011;15314;49.248;6.968;2022-08-19T03:55:02;24.33;;;22.02;;
27977;SDS011;15314;49.248;6.968;2022-08-19T03:56:03;25.00;;;22.80;;
27977;SDS011;15314;49.248;6.968;2022-08-19T03:57:04;23.90;;;21.80;;
27977;SDS011;15314;49.248;6.968;2022-08-19T03:58:04;25.35;;;22.75;;
27977;SDS011;15314;49.248;6.968;2022-08-19T03:59:08;25.52;;;23.23;;
27977;SDS011;15314;49.248;6.968;2022-08-19T04:00:11;23.77;;;21.38;;
27977;SDS011;15314;49.248;6.968;2022-08-19T04:01:16;23.52;;;21.33;;
27977;SDS011;15314;49.248;6.968;2022-08-19T04:02:18;25.35;;;22.98;;
27977;SDS011;15314;49.248;6.968;2022-08-19T04:03:19;25.60;;;23.50;;
27977;SDS011;15314;49.248;6.968;2022-08-19T04:04:20;24.60;;;22.50;;
27977;SDS011;15314;49.248;6.968;2022-08-19T04:05:21;25.40;;;23.13;;
27977;SDS011;15314;49.248;6.968;2022-08-19T04:06:23;24.55;;;22.38;;
27977;SDS011;15314;49.248;6.968;2022-08-19T04:07:26;23.40;;;21.40;;
27977;SDS011;15314;49.248;6.968;2022-08-19T04:08:26;25.75;;;23.30;;
27977;SDS011;15314;49.248;6.968;2022-08-19T04:09:27;24.70;;;22.60;;
27977;SDS011;15314;49.248;6.968;2022-08-19T04:10:28;23.48;;;21.27;;
27977;SDS011;15314;49.248;6.968;2022-08-19T04:11:30;26.10;;;23.55;;
27977;SDS011;15314;49.248;6.968;2022-08-19T04:12:34;26.58;;;24.27;;
27977;SDS011;15314;49.248;6.968;2022-08-19T04:13:34;25.08;;;22.88;;
27977;SDS011;15314;49.248;6.968;2022-08-19T04:14:35;24.30;;;22.20;;
27977;SDS011;15314;49.248;6.968;2022-08-19T04:15:40;24.10;;;21.85;;
27977;SDS011;15314;49.248;6.968;2022-08-19T04:16:42;24.98;;;22.77;;
27977;SDS011;15314;49.248;6.968;2022-08-19T04:17:44;25.42;;;23.05;;
27977;SDS011;15314;49.248;6.968;2022-08-19T04:18:45;24.33;;;22.02;;
27977;SDS011;15314;49.248;6.968;2022-08-19T04:19:47;25.10;;;22.67;;
27977;SDS011;15314;49.248;6.968;2022-08-19T04:20:48;24.60;;;22.40;;
27977;SDS011;15314;49.248;6.968;2022-08-19T04:21:50;24.80;;;22.73;;
27977;SDS011;15314;49.248;6.968;2022-08-19T04:22:52;23.75;;;21.65;;
27977;SDS011;15314;49.248;6.968;2022-08-19T04:23:53;23.77;;;21.70;;
27977;SDS011;15314;49.248;6.968;2022-08-19T04:24:54;24.85;;;22.58;;
27977;SDS011;15314;49.248;6.968;2022-08-19T04:25:55;24.05;;;21.95;;
27977;SDS011;15314;49.248;6.968;2022-08-19T04:26:56;25.58;;;23.25;;
27977;SDS011;15314;49.248;6.968;2022-08-19T04:27:58;24.00;;;21.83;;
27977;SDS011;15314;49.248;6.968;2022-08-19T04:29:00;24.95;;;22.65;;
27977;SDS011;15314;49.248;6.968;2022-08-19T04:30:02;25.02;;;22.50;;
27977;SDS011;15314;49.248;6.968;2022-08-19T04:31:03;24.85;;;22.70;;
27977;SDS011;15314;49.248;6.968;2022-08-19T04:32:04;23.08;;;21.17;;
27977;SDS011;15314;49.248;6.968;2022-08-19T04:33:06;24.50;;;22.40;;
27977;SDS011;15314;49.248;6.968;2022-08-19T04:34:08;24.90;;;22.65;;
27977;SDS011;15314;49.248;6.968;2022-08-19T04:35:12;23.77;;;21.77;;
27977;SDS011;15314;49.248;6.968;2022-08-19T04:36:17;24.50;;;22.40;;
27977;SDS011;15314;49.248;6.968;2022-08-19T04:37:20;23.98;;;21.77;;
27977;SDS011;15314;49.248;6.968;2022-08-19T04:38:21;22.50;;;20.52;;
27977;SDS011;15314;49.248;6.968;2022-08-19T04:39:26;25.08;;;22.77;;
27977;SDS011;15314;49.248;6.968;2022-08-19T04:40:49;24.83;;;22.48;;
27977;SDS011;15314;49.248;6.968;2022-08-19T04:42:10;27.50;;;24.67;;
27977;SDS011;15314;49.248;6.968;2022-08-19T04:43:30;24.58;;;22.27;;
27977;SDS011;15314;49.248;6.968;2022-08-19T04:44:32;25.08;;;22.65;;
27977;SDS011;15314;49.248;6.968;2022-08-19T04:45:35;25.13;;;22.70;;
27977;SDS011;15314;49.248;6.968;2022-08-19T04:46:36;24.15;;;21.88;;
27977;SDS011;15314;49.248;6.968;2022-08-19T04:47:38;24.90;;;22.70;;
27977;SDS011;15314;49.248;6.968;2022-08-19T04:48:40;24.42;;;21.92;;
27977;SDS011;15314;49.248;6.968;2022-08-19T04:49:41;24.15;;;22.00;;
27977;SDS011;15314;49.248;6.968;2022-08-19T04:50:42;24.85;;;22.48;;
27977;SDS011;15314;49.248;6.968;2022-08-19T04:51:44;23.58;;;21.48;;
27977;SDS011;15314;49.248;6.968;2022-08-19T04:52:47;24.27;;;22.30;;
27977;SDS011;15314;49.248;6.968;2022-08-19T04:53:51;25.55;;;23.05;;
27977;SDS011;15314;49.248;6.968;2022-08-19T04:54:52;25.23;;;23.10;;
27977;SDS011;15314;49.248;6.968;2022-08-19T04:55:55;25.17;;;23.00;;
27977;SDS011;15314;49.248;6.968;2022-08-19T04:56:57;27.25;;;24.73;;
27977;SDS011;15314;49.248;6.968;2022-08-19T04:57:57;25.17;;;22.88;;
27977;SDS011;15314;49.248;6.968;2022-08-19T04:58:58;26.92;;;24.65;;
27977;SDS011;15314;49.248;6.968;2022-08-19T05:00:03;24.75;;;22.52;;
27977;SDS011;15314;49.248;6.968;2022-08-19T05:01:04;23.40;;;21.48;;
27977;SDS011;15314;49.248;6.968;2022-08-19T05:02:06;26.95;;;24.38;;
27977;SDS011;15314;49.248;6.968;2022-08-19T05:03:08;24.27;;;22.25;;
27977;SDS011;15314;49.248;6.968;2022-08-19T05:04:08;23.33;;;21.38;;
27977;SDS011;15314;49.248;6.968;2022-08-19T05:05:09;23.88;;;21.88;;
27977;SDS011;15314;49.248;6.968;2022-08-19T05:06:12;24.60;;;22.50;;
27977;SDS011;15314;49.248;6.968;2022-08-19T05:07:14;23.13;;;21.05;;
27977;SDS011;15314;49.248;6.968;2022-08-19T05:08:16;23.67;;;21.42;;
27977;SDS011;15314;49.248;6.968;2022-08-19T05:09:19;23.65;;;21.75;;
27977;SDS011;15314;49.248;6.968;2022-08-19T05:10:21;23.50;;;21.27;;
27977;SDS011;15314;49.248;6.968;2022-08-19T05:11:23;25.08;;;23.08;;
27977;SDS011;15314;49.248;6.968;2022-08-19T05:12:28;25.50;;;23.17;;
27977;SDS011;15314;49.248;6.968;2022-08-19T05:13:29;23.90;;;21.83;;
27977;SDS011;15314;49.248;6.968;2022-08-19T05:14:29;23.17;;;21.17;;
27977;SDS011;15314;49.248;6.968;2022-08-19T05:15:30;23.13;;;21.05;;
27977;SDS011;15314;49.248;6.968;2022-08-19T05:16:30;23.33;;;21.27;;
27977;SDS011;15314;49.248;6.968;2022-08-19T05:17:31;24.83;;;22.83;;
27977;SDS011;15314;49.248;6.968;2022-08-19T05:18:32;25.85;;;23.55;;
27977;SDS011;15314;49.248;6.968;2022-08-19T05:19:51;26.63;;;24.13;;
27977;SDS011;15314;49.248;6.968;2022-08-19T05:21:12;24.40;;;22.20;;
27977;SDS011;15314;49.248;6.968;2022-08-19T05:22:33;23.50;;;21.40;;
27977;SDS011;15314;49.248;6.968;2022-08-19T05:23:37;25.17;;;23.13;;
27977;SDS011;15314;49.248;6.968;2022-08-19T05:24:38;22.35;;;20.65;;
27977;SDS011;15314;49.248;6.968;2022-08-19T05:25:38;25.23;;;23.13;;
27977;SDS011;15314;49.248;6.968;2022-08-19T05:26:40;25.02;;;22.83;;
27977;SDS011;15314;49.248;6.968;2022-08-19T05:27:43;24.00;;;21.88;;
27977;SDS011;15314;49.248;6.968;2022-08-19T05:28:43;26.30;;;23.85;;
27977;SDS011;15314;49.248;6.968;2022-08-19T05:29:44;23.45;;;21.55;;
27977;SDS011;15314;49.248;6.968;2022-08-19T05:30:45;24.45;;;22.30;;
27977;SDS011;15314;49.248;6.968;2022-08-19T05:31:46;23.27;;;21.42;;
27977;SDS011;15314;49.248;6.968;2022-08-19T05:32:49;25.13;;;22.73;;
27977;SDS011;15314;49.248;6.968;2022-08-19T05:33:49;24.75;;;22.85;;
27977;SDS011;15314;49.248;6.968;2022-08-19T05:34:50;24.52;;;22.60;;
27977;SDS011;15314;49.248;6.968;2022-08-19T05:35:51;24.50;;;22.35;;
27977;SDS011;15314;49.248;6.968;2022-08-19T05:36:53;24.50;;;22.48;;
27977;SDS011;15314;49.248;6.968;2022-08-19T05:37:57;24.80;;;22.63;;
27977;SDS011;15314;49.248;6.968;2022-08-19T05:38:57;23.90;;;21.70;;
27977;SDS011;15314;49.248;6.968;2022-08-19T05:39:58;25.13;;;22.98;;
27977;SDS011;15314;49.248;6.968;2022-08-19T05:40:59;27.27;;;24.75;;
27977;SDS011;15314;49.248;6.968;2022-08-19T05:42:01;31.80;;;28.85;;
27977;SDS011;15314;49.248;6.968;2022-08-19T05:43:05;28.45;;;26.05;;
27977;SDS011;15314;49.248;6.968;2022-08-19T05:44:07;30.40;;;27.58;;
27977;SDS011;15314;49.248;6.968;2022-08-19T05:45:09;28.05;;;25.45;;
27977;SDS011;15314;49.248;6.968;2022-08-19T05:46:15;27.60;;;25.02;;
27977;SDS011;15314;49.248;6.968;2022-08-19T05:47:18;25.10;;;22.90;;
27977;SDS011;15314;49.248;6.968;2022-08-19T05:48:20;25.08;;;22.98;;
27977;SDS011;15314;49.248;6.968;2022-08-19T05:49:21;25.08;;;22.88;;
27977;SDS011;15314;49.248;6.968;2022-08-19T05:50:23;25.02;;;22.95;;
27977;SDS011;15314;49.248;6.968;2022-08-19T05:51:25;23.30;;;21.15;;
27977;SDS011;15314;49.248;6.968;2022-08-19T05:52:26;25.80;;;23.45;;
27977;SDS011;15314;49.248;6.968;2022-08-19T05:53:27;24.10;;;21.70;;
27977;SDS011;15314;49.248;6.968;2022-08-19T05:54:28;23.38;;;21.10;;
27977;SDS011;15314;49.248;6.968;2022-08-19T05:55:30;24.27;;;22.17;;
27977;SDS011;15314;49.248;6.968;2022-08-19T05:56:31;24.42;;;22.13;;
27977;SDS011;15314;49.248;6.968;2022-08-19T05:57:31;24.08;;;21.90;;
27977;SDS011;15314;49.248;6.968;2022-08-19T05:58:33;22.20;;;20.25;;
27977;SDS011;15314;49.248;6.968;2022-08-19T05:59:34;24.80;;;22.85;;
27977;SDS011;15314;49.248;6.968;2022-08-19T06:00:38;22.63;;;20.63;;
27977;SDS011;15314;49.248;6.968;2022-08-19T06:01:40;23.02;;;20.92;;
27977;SDS011;15314;49.248;6.968;2022-08-19T06:02:42;23.05;;;20.85;;
27977;SDS011;15314;49.248;6.968;2022-08-19T06:03:43;24.38;;;22.30;;
27977;SDS011;15314;49.248;6.968;2022-08-19T06:04:45;22.67;;;20.73;;
27977;SDS011;15314;49.248;6.968;2022-08-19T06:05:46;22.95;;;20.98;;
27977;SDS011;15314;49.248;6.968;2022-08-19T06:06:47;23.20;;;21.17;;
27977;SDS011;15314;49.248;6.968;2022-08-19T06:07:49;21.90;;;20.05;;